Time,TemperatureF,DewpointF,PressureIn,WindDirection,WindDirectionDegrees,WindSpeedMPH,WindSpeedGustMPH,Humidity,HourlyPrecipIn,Conditions,Clouds,dailyrainin,SolarRadiationWatts/m^2,SoftwareType,DateUTC
2013-10-09 00:22:00,32.0,29.0,-100.00,NNW,338,4.0,4.0,87,0.00,,,0.00,0.000000,,2013-10-09 06:22:00,
2013-10-09 00:33:00,32.0,29.0,-100.00,NNW,338,4.0,4.0,87,0.00,,,0.00,0.000000,,2013-10-09 06:33:00,
2013-10-09 00:42:00,32.0,29.0,-100.00,NNW,338,4.0,4.0,87,0.00,,,0.00,0.000000,,2013-10-09 06:42:00,
2013-10-09 00:52:00,32.0,29.0,-100.00,NNW,338,4.0,4.0,87,0.00,,,0.00,0.000000,,2013-10-09 06:52:00,
2013-10-09 01:22:00,32.0,29.0,-100.00,NNW,329,3.0,5.0,89,0.00,,,0.00,0.000000,,2013-10-09 07:22:00,
2013-10-09 01:32:00,32.0,29.0,-100.00,NNW,329,3.0,5.0,89,0.00,,,0.00,0.000000,,2013-10-09 07:32:00,
2013-10-09 01:42:00,32.0,29.0,-100.00,NNW,329,3.0,5.0,89,0.00,,,0.00,0.000000,,2013-10-09 07:42:00,
2013-10-09 01:52:00,32.0,29.0,-100.00,NNW,329,3.0,5.0,89,0.00,,,0.00,0.000000,,2013-10-09 07:52:00,
2013-10-09 02:23:00,32.0,29.0,-100.00,North,349,5.0,6.0,89,0.00,,,0.00,0.000000,,2013-10-09 08:23:00,
2013-10-09 02:32:00,32.0,29.0,-100.00,North,349,5.0,6.0,89,0.00,,,0.00,0.000000,,2013-10-09 08:32:00,
2013-10-09 02:42:00,32.0,29.0,-100.00,North,349,5.0,6.0,89,0.00,,,0.00,0.000000,,2013-10-09 08:42:00,
2013-10-09 02:53:00,32.0,29.0,-100.00,North,349,5.0,6.0,89,0.00,,,0.00,0.000000,,2013-10-09 08:53:00,
2013-10-09 03:22:00,33.0,30.0,-100.00,NNW,332,2.0,6.0,87,-99.99,,,0.00,0.000000,,2013-10-09 09:22:00,
2013-10-09 03:33:00,33.0,30.0,-100.00,NNW,332,2.0,6.0,87,-99.99,,,0.00,0.000000,,2013-10-09 09:33:00,
2013-10-09 03:43:00,33.0,30.0,-100.00,NNW,332,2.0,6.0,87,-99.99,,,0.00,0.000000,,2013-10-09 09:43:00,
2013-10-09 04:23:00,33.0,30.0,-100.00,NW,324,2.0,4.0,88,-99.99,,,0.00,0.000000,,2013-10-09 10:23:00,
2013-10-09 04:32:00,33.0,30.0,-100.00,NW,324,2.0,4.0,88,-99.99,,,0.00,0.000000,,2013-10-09 10:32:00,
2013-10-09 04:43:00,33.0,30.0,-100.00,NW,324,2.0,4.0,88,-99.99,,,0.00,0.000000,,2013-10-09 10:43:00,
2013-10-09 04:53:00,33.0,30.0,-100.00,NW,324,2.0,4.0,88,-99.99,,,0.00,0.000000,,2013-10-09 10:53:00,
2013-10-09 05:52:00,31.0,29.0,-100.00,NNW,346,3.0,4.0,92,-99.99,,,0.00,0.000000,,2013-10-09 11:52:00,
2013-10-09 06:52:00,30.0,28.0,-100.00,NW,304,1.0,4.0,92,-99.99,,,0.00,0.000000,,2013-10-09 12:52:00,
2013-10-09 07:22:00,30.0,28.0,-100.00,NW,305,2.0,3.0,93,0.00,,,0.00,0.000000,,2013-10-09 13:22:00,
2013-10-09 07:33:00,30.0,28.0,-100.00,NW,305,2.0,3.0,93,0.00,,,0.00,0.000000,,2013-10-09 13:33:00,
2013-10-09 07:42:00,30.0,28.0,-100.00,NW,305,2.0,3.0,93,0.00,,,0.00,0.000000,,2013-10-09 13:42:00,
2013-10-09 07:52:00,30.0,28.0,-100.00,NW,305,2.0,3.0,93,0.00,,,0.00,0.000000,,2013-10-09 13:52:00,
2013-10-09 08:22:00,31.0,29.0,-100.00,NW,313,1.0,4.0,91,0.00,,,0.00,17.000000,,2013-10-09 14:22:00,
2013-10-09 08:32:00,31.0,29.0,-100.00,NW,313,1.0,4.0,91,0.00,,,0.00,17.000000,,2013-10-09 14:32:00,
2013-10-09 08:42:00,31.0,29.0,-100.00,NW,313,1.0,4.0,91,0.00,,,0.00,17.000000,,2013-10-09 14:42:00,
2013-10-09 08:52:00,31.0,29.0,-100.00,NW,313,1.0,4.0,91,0.00,,,0.00,17.000000,,2013-10-09 14:52:00,
2013-10-09 09:22:00,36.0,30.0,-100.00,North,351,0.0,3.0,80,-99.99,,,0.00,78.000000,,2013-10-09 15:22:00,
2013-10-09 09:33:00,36.0,30.0,-100.00,North,351,0.0,3.0,80,-99.99,,,0.00,78.000000,,2013-10-09 15:33:00,
2013-10-09 09:43:00,36.0,30.0,-100.00,North,351,0.0,3.0,80,-99.99,,,0.00,78.000000,,2013-10-09 15:43:00,
2013-10-09 09:53:00,36.0,30.0,-100.00,North,351,0.0,3.0,80,-99.99,,,0.00,78.000000,,2013-10-09 15:53:00,
2013-10-09 10:24:00,43.0,32.0,-100.00,NNW,333,0.0,2.0,66,0.00,,,0.00,152.000000,,2013-10-09 16:24:00,
2013-10-09 10:32:00,43.0,32.0,-100.00,NNW,333,0.0,2.0,66,0.00,,,0.00,152.000000,,2013-10-09 16:32:00,
2013-10-09 10:42:00,43.0,32.0,-100.00,NNW,333,0.0,2.0,66,0.00,,,0.00,152.000000,,2013-10-09 16:42:00,
2013-10-09 10:52:00,43.0,32.0,-100.00,NNW,333,0.0,2.0,66,0.00,,,0.00,152.000000,,2013-10-09 16:52:00,
2013-10-09 11:22:00,50.0,32.0,-100.00,NNW,338,0.0,0.0,50,0.00,,,0.00,273.000000,,2013-10-09 17:22:00,
2013-10-09 11:33:00,50.0,32.0,-100.00,NNW,338,0.0,0.0,50,0.00,,,0.00,273.000000,,2013-10-09 17:33:00,
2013-10-09 11:42:00,50.0,32.0,-100.00,NNW,338,0.0,0.0,50,0.00,,,0.00,273.000000,,2013-10-09 17:42:00,
2013-10-09 11:52:00,50.0,32.0,-100.00,NNW,338,0.0,0.0,50,0.00,,,0.00,273.000000,,2013-10-09 17:52:00,
2013-10-09 12:22:00,54.0,28.0,-100.00,NNE,32,4.0,8.0,36,0.00,,,0.00,344.000000,,2013-10-09 18:22:00,
2013-10-09 12:32:00,54.0,28.0,-100.00,NNE,32,4.0,8.0,36,0.00,,,0.00,344.000000,,2013-10-09 18:32:00,
2013-10-09 12:42:00,54.0,28.0,-100.00,NNE,32,4.0,8.0,36,0.00,,,0.00,344.000000,,2013-10-09 18:42:00,
2013-10-09 12:52:00,54.0,28.0,-100.00,NNE,32,4.0,8.0,36,0.00,,,0.00,344.000000,,2013-10-09 18:52:00,
2013-10-09 13:22:00,53.0,27.0,-100.00,SSE,147,3.0,10.0,36,0.00,,,0.00,353.000000,,2013-10-09 19:22:00,
2013-10-09 13:32:00,53.0,27.0,-100.00,SSE,147,3.0,10.0,36,0.00,,,0.00,353.000000,,2013-10-09 19:32:00,
2013-10-09 13:42:00,53.0,27.0,-100.00,SSE,147,3.0,10.0,36,0.00,,,0.00,353.000000,,2013-10-09 19:42:00,
2013-10-09 13:52:00,53.0,27.0,-100.00,SSE,147,3.0,10.0,36,0.00,,,0.00,353.000000,,2013-10-09 19:52:00,
2013-10-09 14:22:00,55.0,29.0,-100.00,NE,35,4.0,13.0,36,0.00,,,0.00,449.000000,,2013-10-09 20:22:00,
2013-10-09 14:32:00,55.0,29.0,-100.00,NE,35,4.0,13.0,36,0.00,,,0.00,449.000000,,2013-10-09 20:32:00,
2013-10-09 14:43:00,55.0,29.0,-100.00,NE,35,4.0,13.0,36,0.00,,,0.00,449.000000,,2013-10-09 20:43:00,
2013-10-09 14:52:00,55.0,29.0,-100.00,NE,35,4.0,13.0,36,0.00,,,0.00,449.000000,,2013-10-09 20:52:00,
2013-10-09 15:22:00,52.0,27.0,-100.00,North,1,5.0,11.0,38,0.00,,,0.00,400.000000,,2013-10-09 21:22:00,
2013-10-09 15:34:00,52.0,27.0,-100.00,North,1,5.0,11.0,38,0.00,,,0.00,400.000000,,2013-10-09 21:34:00,
2013-10-09 15:44:00,52.0,27.0,-100.00,North,1,5.0,11.0,38,0.00,,,0.00,400.000000,,2013-10-09 21:44:00,
2013-10-09 15:53:00,52.0,27.0,-100.00,North,1,5.0,11.0,38,0.00,,,0.00,400.000000,,2013-10-09 21:53:00,
2013-10-09 16:24:00,51.0,29.0,-100.00,NNW,338,3.0,8.0,43,0.00,,,0.00,240.000000,,2013-10-09 22:24:00,
2013-10-09 16:34:00,51.0,29.0,-100.00,NNW,338,3.0,8.0,43,0.00,,,0.00,240.000000,,2013-10-09 22:34:00,
2013-10-09 16:43:00,51.0,29.0,-100.00,NNW,338,3.0,8.0,43,0.00,,,0.00,240.000000,,2013-10-09 22:43:00,
2013-10-09 16:53:00,51.0,29.0,-100.00,NNW,338,3.0,8.0,43,0.00,,,0.00,240.000000,,2013-10-09 22:53:00,
2013-10-09 17:22:00,50.0,29.0,-100.00,NNW,341,3.0,6.0,45,0.00,,,0.00,158.000000,,2013-10-09 23:22:00,
2013-10-09 17:34:00,50.0,29.0,-100.00,NNW,341,3.0,6.0,45,0.00,,,0.00,158.000000,,2013-10-09 23:34:00,
2013-10-09 17:43:00,50.0,29.0,-100.00,NNW,341,3.0,6.0,45,0.00,,,0.00,158.000000,,2013-10-09 23:43:00,
2013-10-09 17:53:00,50.0,29.0,-100.00,NNW,341,3.0,6.0,45,0.00,,,0.00,158.000000,,2013-10-09 23:53:00,
2013-10-09 18:22:00,44.0,33.0,-100.00,WNW,285,0.0,5.0,64,0.00,,,0.00,54.000000,,2013-10-10 00:22:00,
2013-10-09 18:32:00,44.0,33.0,-100.00,WNW,285,0.0,5.0,64,0.00,,,0.00,54.000000,,2013-10-10 00:32:00,
2013-10-09 18:42:00,44.0,33.0,-100.00,WNW,285,0.0,5.0,64,0.00,,,0.00,54.000000,,2013-10-10 00:42:00,
2013-10-09 18:52:00,44.0,33.0,-100.00,WNW,285,0.0,5.0,64,0.00,,,0.00,54.000000,,2013-10-10 00:52:00,
2013-10-09 19:21:00,37.0,31.0,-100.00,NW,316,1.0,5.0,78,0.00,,,0.00,6.000000,,2013-10-10 01:21:00,
2013-10-09 19:32:00,37.0,31.0,-100.00,NW,316,1.0,5.0,78,0.00,,,0.00,6.000000,,2013-10-10 01:32:00,
2013-10-09 19:42:00,37.0,31.0,-100.00,NW,316,1.0,5.0,78,0.00,,,0.00,6.000000,,2013-10-10 01:42:00,
2013-10-09 19:52:00,37.0,31.0,-100.00,NW,316,1.0,5.0,78,0.00,,,0.00,6.000000,,2013-10-10 01:52:00,
2013-10-09 20:22:00,34.0,30.0,-100.00,NW,304,2.0,5.0,84,0.00,,,0.00,0.000000,,2013-10-10 02:22:00,
2013-10-09 20:33:00,34.0,30.0,-100.00,NW,304,2.0,5.0,84,0.00,,,0.00,0.000000,,2013-10-10 02:33:00,
2013-10-09 20:42:00,34.0,30.0,-100.00,NW,304,2.0,5.0,84,0.00,,,0.00,0.000000,,2013-10-10 02:42:00,
2013-10-09 20:52:00,34.0,30.0,-100.00,NW,304,2.0,5.0,84,0.00,,,0.00,0.000000,,2013-10-10 02:52:00,
2013-10-09 21:22:00,32.0,29.0,-100.00,NNW,342,2.0,3.0,88,0.00,,,0.00,0.000000,,2013-10-10 03:22:00,
2013-10-09 21:34:00,32.0,29.0,-100.00,NNW,342,2.0,3.0,88,0.00,,,0.00,0.000000,,2013-10-10 03:34:00,
2013-10-09 21:44:00,32.0,29.0,-100.00,NNW,342,2.0,3.0,88,0.00,,,0.00,0.000000,,2013-10-10 03:44:00,
2013-10-09 21:54:00,32.0,29.0,-100.00,NNW,342,2.0,3.0,88,0.00,,,0.00,0.000000,,2013-10-10 03:54:00,
2013-10-09 22:24:00,30.0,28.0,-100.00,NNW,345,2.0,3.0,91,0.00,,,0.00,0.000000,,2013-10-10 04:24:00,
2013-10-09 22:33:00,30.0,28.0,-100.00,NNW,345,2.0,3.0,91,0.00,,,0.00,0.000000,,2013-10-10 04:33:00,
2013-10-09 22:49:00,30.0,28.0,-100.00,NNW,345,2.0,3.0,91,0.00,,,0.00,0.000000,,2013-10-10 04:49:00,
2013-10-09 23:23:00,29.0,27.0,-100.00,WNW,289,0.0,3.0,93,0.00,,,0.00,0.000000,,2013-10-10 05:23:00,
2013-10-09 23:34:00,29.0,27.0,-100.00,WNW,289,0.0,3.0,93,0.00,,,0.00,0.000000,,2013-10-10 05:34:00,
2013-10-09 23:43:00,29.0,27.0,-100.00,WNW,289,0.0,3.0,93,0.00,,,0.00,0.000000,,2013-10-10 05:43:00,
2013-10-09 23:52:00,29.0,27.0,-100.00,WNW,289,0.0,3.0,93,0.00,,,0.00,0.000000,,2013-10-10 05:52:00,